Time;durP1;ratioP1;P1;durP2;ratioP2;P2;SDS_P1;SDS_P2;PMS_P1;PMS_P2;Temp;Humidity;BMP_temperature;BMP_pressure;BME280_temperature;BME280_humidity;BME280_pressure;Samples;Min_cycle;Max_cycle;Signal;HPM_P1;HPM_P2
2021/10/31 00:00:11;;;;;;;26.97;9.63;;;13.10;99.90;;;;;;5087505;28;20853;-75
2021/10/31 00:02:38;;;;;;;23.98;9.23;;;13.10;99.90;;;;;;5097594;28;20441;-75
2021/10/31 00:05:04;;;;;;;25.93;9.30;;;13.10;99.90;;;;;;5092950;28;20432;-75
2021/10/31 00:07:29;;;;;;;20.67;8.93;;;13.00;99.90;;;;;;5099796;28;20409;-75
2021/10/31 00:09:55;;;;;;;24.35;9.07;;;13.00;99.90;;;;;;5093519;28;20413;-75
2021/10/31 00:12:21;;;;;;;22.00;8.80;;;13.00;99.90;;;;;;5099645;28;20498;-75
2021/10/31 00:14:47;;;;;;;22.37;8.93;;;13.00;99.90;;;;;;5075114;28;20419;-75
2021/10/31 00:17:12;;;;;;;25.05;8.43;;;13.00;99.90;;;;;;5093093;28;20489;-75
2021/10/31 00:19:38;;;;;;;21.13;8.50;;;13.00;99.90;;;;;;5099921;28;20417;-75
2021/10/31 00:22:04;;;;;;;26.33;8.80;;;13.00;99.90;;;;;;5075330;28;20415;-76
2021/10/31 00:24:30;;;;;;;24.40;9.20;;;13.00;99.90;;;;;;5098392;28;20409;-75
2021/10/31 00:26:55;;;;;;;19.67;8.20;;;13.00;99.90;;;;;;5067820;28;20192;-76
2021/10/31 00:29:21;;;;;;;23.63;8.20;;;12.60;99.90;;;;;;5097939;28;20213;-75
2021/10/31 00:31:46;;;;;;;22.35;7.50;;;12.30;99.90;;;;;;5108095;28;20177;-75
2021/10/31 00:34:12;;;;;;;24.13;9.40;;;12.10;99.90;;;;;;5093193;28;20406;-76
2021/10/31 00:36:38;;;;;;;25.63;9.15;;;12.40;99.90;;;;;;5088654;28;20500;-76
2021/10/31 00:39:04;;;;;;;23.87;9.70;;;12.60;99.90;;;;;;5116444;27;20457;-76
2021/10/31 00:41:31;;;;;;;23.90;9.60;;;12.70;99.90;;;;;;5092833;28;20441;-76
2021/10/31 00:43:57;;;;;;;21.37;9.13;;;12.70;99.90;;;;;;5086862;28;20424;-75
2021/10/31 00:46:23;;;;;;;22.25;9.43;;;12.70;99.90;;;;;;5088796;28;20406;-76
2021/10/31 00:48:49;;;;;;;22.70;9.32;;;12.70;99.90;;;;;;5087712;28;20410;-76
2021/10/31 00:51:15;;;;;;;20.73;9.60;;;12.70;99.90;;;;;;5080969;28;20411;-75
2021/10/31 00:53:43;;;;;;;23.17;10.15;;;12.70;99.90;;;;;;5074921;28;20469;-75
2021/10/31 00:56:09;;;;;;;22.45;9.70;;;12.70;99.90;;;;;;5085109;28;20491;-76
2021/10/31 00:58:35;;;;;;;27.83;9.85;;;12.70;99.90;;;;;;5090972;28;20405;-76
2021/10/31 01:01:01;;;;;;;21.40;10.02;;;12.70;99.90;;;;;;5086613;28;20486;-74
2021/10/31 01:03:27;;;;;;;23.40;9.53;;;12.70;99.90;;;;;;5087972;28;20467;-75
2021/10/31 01:06:03;;;;;;;26.77;10.05;;;12.70;99.90;;;;;;5085979;28;20893;-74
2021/10/31 01:08:56;;;;;;;26.45;10.23;;;12.60;99.90;;;;;;5088496;28;20393;-74
2021/10/31 01:11:31;;;;;;;24.35;9.70;;;12.60;99.90;;;;;;5103809;27;20902;-75
2021/10/31 01:14:07;;;;;;;25.30;9.50;;;12.60;99.90;;;;;;5089019;28;20762;-75
2021/10/31 01:16:50;;;;;;;26.60;10.00;;;12.60;99.90;;;;;;5068477;28;20410;-75
2021/10/31 01:19:41;;;;;;;25.48;9.48;;;12.60;99.90;;;;;;5088101;28;20398;-74
2021/10/31 01:22:44;;;;;;;23.23;9.02;;;12.60;99.90;;;;;;5087524;28;20413;-75
2021/10/31 01:26:06;;;;;;;21.42;9.10;;;12.50;99.90;;;;;;5076439;28;20433;-75
2021/10/31 01:28:56;;;;;;;21.85;8.68;;;12.50;99.90;;;;;;5031481;28;20414;-75
2021/10/31 01:31:33;;;;;;;21.38;9.40;;;12.50;99.90;;;;;;5023588;28;20411;-76
2021/10/31 01:34:30;;;;;;;23.45;10.48;;;12.50;99.90;;;;;;5079481;28;20402;-75
2021/10/31 01:37:05;;;;;;;23.67;10.40;;;12.50;99.90;;;;;;5087162;28;20425;-75
2021/10/31 01:40:21;;;;;;;27.57;11.13;;;12.50;99.90;;;;;;5075537;28;21209;-75
2021/10/31 01:43:08;;;;;;;23.07;10.57;;;12.50;99.90;;;;;;5037004;28;20428;-75
2021/10/31 01:45:52;;;;;;;23.92;10.82;;;12.50;99.90;;;;;;5068622;28;20414;-75
2021/10/31 01:48:25;;;;;;;24.20;10.60;;;12.40;99.90;;;;;;5086343;28;20877;-75
2021/10/31 01:50:58;;;;;;;22.17;10.50;;;12.50;99.90;;;;;;5093993;28;20424;-75
2021/10/31 01:53:42;;;;;;;28.83;10.70;;;12.50;99.90;;;;;;5071380;28;20412;-75
2021/10/31 01:56:16;;;;;;;30.48;11.50;;;12.50;99.90;;;;;;5079949;28;20407;-76
2021/10/31 01:58:46;;;;;;;27.98;10.70;;;12.50;99.90;;;;;;5096123;28;20459;-75
2021/10/31 02:01:15;;;;;;;27.75;11.05;;;12.50;99.90;;;;;;5087836;28;20417;-76
2021/10/31 02:03:42;;;;;;;25.77;11.00;;;12.50;99.90;;;;;;5094204;28;20488;-75
2021/10/31 02:06:10;;;;;;;27.25;10.70;;;12.50;99.90;;;;;;5091128;28;21236;-74
2021/10/31 02:08:39;;;;;;;25.55;11.27;;;12.40;99.90;;;;;;5112929;27;20967;-75
2021/10/31 02:11:09;;;;;;;30.70;11.23;;;12.40;99.90;;;;;;5097445;28;20423;-75
2021/10/31 02:13:35;;;;;;;27.20;11.47;;;12.40;99.90;;;;;;5092082;28;20716;-76
2021/10/31 02:16:02;;;;;;;25.42;11.90;;;12.40;99.90;;;;;;5068934;28;20409;-75
2021/10/31 02:18:29;;;;;;;25.27;11.70;;;12.30;99.90;;;;;;5088673;28;20505;-74
2021/10/31 02:20:57;;;;;;;26.17;11.57;;;12.40;99.90;;;;;;5087737;28;20418;-74
2021/10/31 02:23:24;;;;;;;26.67;12.07;;;12.30;99.90;;;;;;5076848;28;20422;-74
2021/10/31 02:25:50;;;;;;;27.58;11.77;;;12.30;99.90;;;;;;5083535;28;20821;-76
2021/10/31 02:28:16;;;;;;;24.67;11.40;;;12.30;99.90;;;;;;5091418;28;20401;-75
2021/10/31 02:30:42;;;;;;;22.90;11.60;;;12.30;99.90;;;;;;5091254;28;20409;-76
2021/10/31 02:33:08;;;;;;;22.98;11.00;;;12.20;99.90;;;;;;5087103;28;20403;-74
2021/10/31 02:35:34;;;;;;;24.47;11.17;;;12.20;99.90;;;;;;5068462;28;20432;-74
2021/10/31 02:37:59;;;;;;;25.65;11.48;;;12.20;99.90;;;;;;5073495;28;20418;-75
2021/10/31 02:40:25;;;;;;;25.60;11.40;;;12.20;99.90;;;;;;5086388;28;20482;-75
2021/10/31 02:42:51;;;;;;;26.20;11.40;;;12.20;99.90;;;;;;5074449;28;20416;-75
2021/10/31 02:45:18;;;;;;;25.67;11.90;;;12.20;99.90;;;;;;5089648;28;20425;-75
2021/10/31 02:47:56;;;;;;;26.25;11.82;;;12.20;99.90;;;;;;5090415;28;20400;-74
2021/10/31 02:50:27;;;;;;;23.48;12.00;;;12.20;99.90;;;;;;5085043;28;20406;-75
2021/10/31 02:53:14;;;;;;;22.38;11.32;;;12.20;99.90;;;;;;5095021;28;20474;-75
2021/10/31 02:55:59;;;;;;;23.75;11.88;;;12.20;99.90;;;;;;5074036;28;20416;-75
2021/10/31 02:59:06;;;;;;;24.70;11.57;;;12.20;99.90;;;;;;5087636;28;20406;-74
2021/10/31 03:01:35;;;;;;;24.13;11.50;;;12.20;99.90;;;;;;5084243;28;20423;-75
2021/10/31 03:04:01;;;;;;;28.10;11.88;;;12.20;99.90;;;;;;5086058;28;20550;-75
2021/10/31 03:06:27;;;;;;;29.87;11.80;;;12.10;99.90;;;;;;5085303;28;20406;-75
2021/10/31 03:08:52;;;;;;;28.17;11.95;;;12.10;99.90;;;;;;5076538;28;20545;-75
2021/10/31 03:11:19;;;;;;;25.87;11.67;;;12.10;99.90;;;;;;5083686;28;20415;-75
2021/10/31 03:13:45;;;;;;;28.95;11.55;;;12.10;99.90;;;;;;5074834;28;20410;-75
2021/10/31 03:16:11;;;;;;;22.98;12.02;;;12.10;99.90;;;;;;5099780;28;20423;-76
2021/10/31 03:18:37;;;;;;;21.90;11.67;;;12.10;99.90;;;;;;5095037;28;21004;-75
2021/10/31 03:21:03;;;;;;;21.85;11.95;;;12.00;99.90;;;;;;5097546;28;20411;-75
2021/10/31 03:23:29;;;;;;;24.13;11.88;;;12.10;99.90;;;;;;5099723;28;20413;-75
2021/10/31 03:25:56;;;;;;;24.30;12.00;;;12.00;99.90;;;;;;5094179;28;20427;-75
2021/10/31 03:28:22;;;;;;;22.70;11.95;;;12.00;99.90;;;;;;5076715;28;20410;-76
2021/10/31 03:30:48;;;;;;;22.98;11.70;;;12.00;99.90;;;;;;5064707;28;20518;-75
2021/10/31 03:33:14;;;;;;;24.30;11.10;;;12.00;99.90;;;;;;5055514;28;20639;-76
2021/10/31 03:35:40;;;;;;;23.92;11.88;;;12.00;99.90;;;;;;5091020;28;20419;-75
2021/10/31 03:38:06;;;;;;;24.73;12.00;;;12.00;99.90;;;;;;5075616;28;20404;-77
2021/10/31 03:40:32;;;;;;;25.80;12.48;;;12.00;99.90;;;;;;5091616;28;20412;-75
2021/10/31 03:42:58;;;;;;;22.95;12.57;;;12.00;99.90;;;;;;5109111;27;20437;-75
2021/10/31 03:45:24;;;;;;;22.83;12.67;;;12.00;99.90;;;;;;5071755;28;20495;-76
2021/10/31 03:47:50;;;;;;;25.70;12.13;;;12.00;99.90;;;;;;5098452;28;20405;-75
2021/10/31 03:50:17;;;;;;;22.90;12.37;;;12.00;99.90;;;;;;5095560;28;20410;-76
2021/10/31 03:52:44;;;;;;;28.17;13.13;;;12.00;99.90;;;;;;5094981;28;20402;-76
2021/10/31 03:55:11;;;;;;;21.98;12.65;;;11.90;99.90;;;;;;5099234;28;20412;-76
2021/10/31 03:57:37;;;;;;;34.53;13.77;;;11.90;99.90;;;;;;5095901;28;20402;-76
2021/10/31 04:00:08;;;;;;;24.75;13.50;;;12.00;99.90;;;;;;5097236;28;20579;-75
2021/10/31 04:02:35;;;;;;;27.15;13.80;;;11.90;99.90;;;;;;5092119;28;20408;-75
2021/10/31 04:05:01;;;;;;;30.63;13.93;;;11.90;99.90;;;;;;5093130;28;20464;-75
2021/10/31 04:07:27;;;;;;;27.58;14.95;;;11.90;99.90;;;;;;5085657;28;20405;-76
2021/10/31 04:09:52;;;;;;;27.87;15.37;;;11.90;99.90;;;;;;5090704;28;20406;-74
2021/10/31 04:12:18;;;;;;;31.10;15.82;;;11.90;99.90;;;;;;5095718;28;21226;-74
2021/10/31 04:14:43;;;;;;;31.53;16.07;;;11.90;99.90;;;;;;5054738;28;20415;-75
2021/10/31 04:17:09;;;;;;;28.40;16.35;;;11.90;99.90;;;;;;5098170;28;20402;-75
2021/10/31 04:19:35;;;;;;;31.73;17.70;;;11.80;99.90;;;;;;5073972;28;20394;-75
2021/10/31 04:22:00;;;;;;;30.90;17.83;;;11.80;99.90;;;;;;5092256;28;20906;-75
2021/10/31 04:24:26;;;;;;;37.15;17.70;;;11.80;99.90;;;;;;5077289;28;20551;-76
2021/10/31 04:27:01;;;;;;;30.70;17.33;;;11.80;99.90;;;;;;5073839;28;20472;-76
2021/10/31 04:29:27;;;;;;;31.73;16.75;;;11.80;99.90;;;;;;5095889;28;20437;-75
2021/10/31 04:31:54;;;;;;;25.45;16.42;;;11.80;99.90;;;;;;5092978;28;20941;-75
2021/10/31 04:34:20;;;;;;;30.27;17.13;;;11.80;99.90;;;;;;5095919;28;20822;-76
2021/10/31 04:36:45;;;;;;;24.90;16.00;;;11.80;99.90;;;;;;5087141;28;20410;-76
2021/10/31 04:39:12;;;;;;;27.58;16.13;;;11.80;99.90;;;;;;5097621;28;20417;-75
2021/10/31 04:41:39;;;;;;;27.65;15.30;;;11.80;99.90;;;;;;5094100;28;20931;-74
2021/10/31 04:44:05;;;;;;;23.90;15.15;;;11.80;99.90;;;;;;5092508;28;21082;-75
2021/10/31 04:46:30;;;;;;;25.90;15.85;;;11.80;99.90;;;;;;5098938;28;20400;-75
2021/10/31 04:48:56;;;;;;;31.20;17.10;;;11.80;99.90;;;;;;5094333;28;20394;-75
2021/10/31 04:51:22;;;;;;;29.67;17.10;;;11.80;99.90;;;;;;5076317;28;20405;-74
2021/10/31 04:53:48;;;;;;;29.67;18.47;;;11.80;99.90;;;;;;5085585;28;20414;-74
2021/10/31 04:56:14;;;;;;;33.17;18.25;;;11.80;99.90;;;;;;5069675;28;20402;-74
2021/10/31 04:58:39;;;;;;;31.47;19.13;;;11.80;99.90;;;;;;5088934;28;20493;-75
2021/10/31 05:01:05;;;;;;;32.30;20.50;;;11.80;99.90;;;;;;5072463;28;20497;-74
2021/10/31 05:03:31;;;;;;;33.33;21.23;;;11.80;99.90;;;;;;5103151;28;20513;-74
2021/10/31 05:05:57;;;;;;;30.17;21.33;;;11.80;99.90;;;;;;5089409;28;20398;-75
2021/10/31 05:08:23;;;;;;;35.67;22.80;;;11.70;99.90;;;;;;5056519;28;20413;-74
2021/10/31 05:10:48;;;;;;;33.07;22.17;;;11.70;99.90;;;;;;5086545;28;20910;-75
2021/10/31 05:13:14;;;;;;;32.70;22.75;;;11.70;99.90;;;;;;5073968;28;20414;-75
2021/10/31 05:15:40;;;;;;;35.15;23.95;;;11.70;99.90;;;;;;5091357;28;20566;-75
2021/10/31 05:18:06;;;;;;;39.87;24.57;;;11.80;99.90;;;;;;5086192;28;20392;-75
2021/10/31 05:20:32;;;;;;;34.43;24.27;;;11.70;99.90;;;;;;5092105;28;20813;-76
2021/10/31 05:22:57;;;;;;;32.10;23.38;;;11.70;99.90;;;;;;5089069;28;20429;-75
2021/10/31 05:25:23;;;;;;;32.70;23.37;;;11.70;99.90;;;;;;5087598;28;20405;-75
2021/10/31 05:27:49;;;;;;;39.03;24.70;;;11.70;99.90;;;;;;5087030;28;20896;-74
2021/10/31 05:30:14;;;;;;;38.33;24.13;;;11.70;99.90;;;;;;5085087;28;20412;-75
2021/10/31 05:32:42;;;;;;;36.75;24.08;;;11.70;99.90;;;;;;5071764;28;20409;-75
2021/10/31 05:35:11;;;;;;;37.08;24.27;;;11.70;99.90;;;;;;5048767;28;20413;-75
2021/10/31 05:37:41;;;;;;;36.22;24.38;;;11.70;99.90;;;;;;5068454;28;20501;-75
2021/10/31 05:40:09;;;;;;;38.63;24.10;;;11.70;99.90;;;;;;5088627;28;20491;-76
2021/10/31 05:42:35;;;;;;;38.83;24.20;;;11.70;99.90;;;;;;5068596;28;20469;-76
2021/10/31 05:45:01;;;;;;;40.60;25.03;;;11.70;99.90;;;;;;5087858;28;20441;-76
2021/10/31 05:47:27;;;;;;;33.33;24.00;;;11.70;99.90;;;;;;5080522;28;20405;-74
2021/10/31 05:49:53;;;;;;;37.63;24.52;;;11.70;99.90;;;;;;5087264;28;20475;-75
2021/10/31 05:52:19;;;;;;;39.10;23.95;;;11.70;99.90;;;;;;5093498;28;21242;-76
2021/10/31 05:54:45;;;;;;;35.93;24.37;;;11.80;99.90;;;;;;5065370;28;20930;-76
2021/10/31 05:57:10;;;;;;;38.70;24.35;;;11.70;99.90;;;;;;5078698;28;20524;-77
2021/10/31 05:59:36;;;;;;;36.27;23.50;;;11.70;99.90;;;;;;5080904;28;20495;-77
2021/10/31 06:02:03;;;;;;;36.05;24.50;;;11.80;99.90;;;;;;5097668;28;20392;-76
2021/10/31 06:04:31;;;;;;;38.15;24.45;;;11.70;99.90;;;;;;5073838;28;20414;-76
2021/10/31 06:06:56;;;;;;;41.55;24.10;;;11.70;99.90;;;;;;5067740;28;20764;-76
2021/10/31 06:09:22;;;;;;;35.55;24.02;;;11.70;99.90;;;;;;5099435;28;20454;-74
2021/10/31 06:11:48;;;;;;;37.28;24.95;;;11.60;99.90;;;;;;5106828;27;20949;-74
2021/10/31 06:14:14;;;;;;;37.37;24.47;;;11.60;99.90;;;;;;5089715;28;20482;-75
2021/10/31 06:16:40;;;;;;;36.40;23.87;;;11.60;99.90;;;;;;5097778;28;20419;-76
2021/10/31 06:19:06;;;;;;;37.73;24.40;;;11.60;99.90;;;;;;5087815;28;20417;-76
2021/10/31 06:21:32;;;;;;;37.33;24.20;;;11.60;99.90;;;;;;5085618;28;20413;-72
2021/10/31 06:23:57;;;;;;;38.33;24.03;;;11.50;99.90;;;;;;5084606;28;20413;-72
2021/10/31 06:26:23;;;;;;;39.25;24.35;;;11.50;99.90;;;;;;5085868;28;20441;-72
2021/10/31 06:28:49;;;;;;;37.60;23.80;;;11.50;99.90;;;;;;5090015;28;20402;-71
2021/10/31 06:31:15;;;;;;;36.13;23.40;;;11.50;99.90;;;;;;5086161;28;20409;-72
2021/10/31 06:33:41;;;;;;;38.07;24.23;;;11.50;99.90;;;;;;5097051;28;20499;-70
2021/10/31 06:36:06;;;;;;;36.60;22.67;;;11.50;99.90;;;;;;5089469;28;20509;-71
2021/10/31 06:38:32;;;;;;;36.67;23.38;;;11.50;99.90;;;;;;5099554;28;20428;-73
2021/10/31 06:40:58;;;;;;;36.63;22.47;;;11.50;99.90;;;;;;5094337;28;20419;-72
2021/10/31 06:43:24;;;;;;;40.63;22.77;;;11.50;99.90;;;;;;5084530;28;20441;-72
2021/10/31 06:45:49;;;;;;;35.53;22.20;;;11.50;99.90;;;;;;5093346;28;20401;-75
2021/10/31 06:48:15;;;;;;;34.47;21.95;;;11.50;99.90;;;;;;5093763;28;20395;-72
2021/10/31 06:50:41;;;;;;;40.85;22.50;;;11.40;99.90;;;;;;5073088;28;20463;-73
2021/10/31 06:53:06;;;;;;;35.75;22.10;;;11.50;99.90;;;;;;5091003;28;20409;-78
2021/10/31 06:55:34;;;;;;;33.47;21.77;;;11.50;99.90;;;;;;5095806;28;20864;-74
2021/10/31 06:57:59;;;;;;;37.42;22.42;;;11.50;99.90;;;;;;5102406;28;20405;-72
2021/10/31 07:00:26;;;;;;;35.80;21.87;;;11.50;99.90;;;;;;5093604;28;20455;-77
2021/10/31 07:02:52;;;;;;;34.15;21.67;;;11.50;99.90;;;;;;5090540;28;20454;-76
2021/10/31 07:05:18;;;;;;;33.87;21.13;;;11.50;99.90;;;;;;5092420;28;20449;-77
2021/10/31 07:07:43;;;;;;;32.28;20.88;;;11.50;99.90;;;;;;5082274;28;21050;-76
2021/10/31 07:10:09;;;;;;;37.53;21.73;;;11.50;99.90;;;;;;5097340;28;20475;-74
2021/10/31 07:12:35;;;;;;;34.42;20.95;;;11.50;99.90;;;;;;5099429;28;20905;-77
2021/10/31 07:15:01;;;;;;;33.03;20.27;;;11.60;99.90;;;;;;5097548;28;20422;-76
2021/10/31 07:17:26;;;;;;;33.90;21.05;;;11.60;99.90;;;;;;5098587;28;20879;-78
2021/10/31 07:19:52;;;;;;;31.63;20.20;;;11.60;99.90;;;;;;5078896;28;20401;-76
2021/10/31 07:22:19;;;;;;;31.20;20.35;;;11.60;99.90;;;;;;5080158;28;20915;-77
2021/10/31 07:24:50;;;;;;;29.83;19.45;;;11.60;99.90;;;;;;5098820;28;20424;-78
2021/10/31 07:27:16;;;;;;;32.73;19.70;;;11.60;99.90;;;;;;5084742;28;20463;-75
2021/10/31 07:29:41;;;;;;;28.52;19.08;;;11.60;99.90;;;;;;5097963;28;20415;-75
2021/10/31 07:32:08;;;;;;;31.60;19.43;;;11.70;99.90;;;;;;5092557;28;21080;-77
2021/10/31 07:34:34;;;;;;;30.10;19.08;;;11.70;99.90;;;;;;5090289;28;20420;-75
2021/10/31 07:36:59;;;;;;;29.00;18.05;;;11.70;99.90;;;;;;5102416;28;20847;-75
2021/10/31 07:39:25;;;;;;;27.90;18.23;;;11.70;99.90;;;;;;5090762;28;20957;-75
2021/10/31 07:41:50;;;;;;;26.58;17.63;;;11.80;99.90;;;;;;5080322;28;20411;-75
2021/10/31 07:44:19;;;;;;;25.27;16.80;;;11.80;99.90;;;;;;5090818;28;20413;-75
2021/10/31 07:46:45;;;;;;;27.10;17.77;;;11.80;99.90;;;;;;5071403;28;20796;-76
2021/10/31 07:49:10;;;;;;;25.40;17.55;;;11.90;99.90;;;;;;5089902;28;20402;-76
2021/10/31 07:51:36;;;;;;;26.83;17.47;;;11.90;99.90;;;;;;5070755;28;20417;-76
2021/10/31 07:54:02;;;;;;;24.20;15.50;;;11.90;99.90;;;;;;5096062;28;20503;-76
2021/10/31 07:56:32;;;;;;;25.85;16.15;;;12.00;99.90;;;;;;5089291;28;20406;-78
2021/10/31 07:58:58;;;;;;;22.27;16.33;;;12.10;99.90;;;;;;5070511;28;20864;-73
2021/10/31 08:01:24;;;;;;;22.33;16.27;;;12.10;99.90;;;;;;5097330;28;20441;-75
2021/10/31 08:03:53;;;;;;;21.42;16.00;;;12.10;99.90;;;;;;5071337;28;20418;-75
2021/10/31 08:06:19;;;;;;;23.00;15.77;;;12.20;99.90;;;;;;5090132;28;20490;-76
2021/10/31 08:08:45;;;;;;;24.35;16.38;;;12.20;99.90;;;;;;5091661;28;20406;-76
2021/10/31 08:11:10;;;;;;;25.40;16.33;;;12.20;99.90;;;;;;5071037;28;20413;-76
2021/10/31 08:13:38;;;;;;;22.80;16.20;;;12.30;99.90;;;;;;5074639;28;20514;-73
2021/10/31 08:16:03;;;;;;;23.42;16.27;;;12.30;99.90;;;;;;5087831;28;20910;-73
2021/10/31 08:18:30;;;;;;;21.65;16.20;;;12.30;99.90;;;;;;5089230;28;20425;-73
2021/10/31 08:20:56;;;;;;;22.53;15.70;;;12.30;99.90;;;;;;5089007;28;20512;-76
2021/10/31 08:23:22;;;;;;;22.70;15.97;;;12.40;99.90;;;;;;5069114;28;20405;-75
2021/10/31 08:25:49;;;;;;;20.42;16.25;;;12.40;99.90;;;;;;5085927;28;21013;-75
2021/10/31 08:28:17;;;;;;;22.52;15.55;;;12.50;99.90;;;;;;5070080;28;20755;-75
2021/10/31 08:30:56;;;;;;;19.75;15.40;;;12.60;99.90;;;;;;5103879;27;20992;-73
2021/10/31 08:33:26;;;;;;;19.50;14.27;;;12.70;99.90;;;;;;5091662;28;20507;-73
2021/10/31 08:35:53;;;;;;;18.20;14.23;;;12.80;99.90;;;;;;5073970;28;20443;-74
2021/10/31 08:38:19;;;;;;;18.98;13.45;;;13.10;99.90;;;;;;5088933;28;20407;-75
2021/10/31 08:40:48;;;;;;;19.10;13.97;;;13.30;99.90;;;;;;5075587;28;21077;-75
2021/10/31 08:43:14;;;;;;;17.48;12.10;;;13.60;99.90;;;;;;5072067;28;20551;-75
2021/10/31 08:45:41;;;;;;;17.20;11.80;;;13.30;99.90;;;;;;5070736;28;20266;-73
2021/10/31 08:48:07;;;;;;;18.17;12.10;;;13.10;99.90;;;;;;5089242;28;20539;-74
2021/10/31 08:50:33;;;;;;;19.90;12.68;;;12.90;99.90;;;;;;5079002;28;20264;-74
2021/10/31 08:52:58;;;;;;;14.23;11.63;;;12.90;99.90;;;;;;5096236;28;20257;-73
2021/10/31 08:55:24;;;;;;;17.88;12.40;;;13.10;99.90;;;;;;5088872;28;20181;-74
2021/10/31 08:57:50;;;;;;;16.05;11.43;;;13.30;99.90;;;;;;5089363;28;20209;-75
2021/10/31 09:00:15;;;;;;;16.08;11.35;;;13.40;99.90;;;;;;5070900;28;20183;-77
2021/10/31 09:02:42;;;;;;;17.33;11.25;;;13.40;99.90;;;;;;5087818;28;20245;-75
2021/10/31 09:05:08;;;;;;;15.13;11.25;;;13.30;99.90;;;;;;5070498;28;20189;-74
2021/10/31 09:07:34;;;;;;;13.57;10.60;;;13.20;99.90;;;;;;5089626;28;20178;-74
2021/10/31 09:10:01;;;;;;;15.65;11.05;;;13.10;99.90;;;;;;5091849;28;20213;-75
2021/10/31 09:12:27;;;;;;;12.93;10.10;;;13.00;99.90;;;;;;5089330;28;20186;-75
2021/10/31 09:14:53;;;;;;;16.38;10.65;;;12.90;99.90;;;;;;5073492;28;20229;-75
2021/10/31 09:17:19;;;;;;;13.25;11.35;;;12.80;99.90;;;;;;5057490;28;20753;-75
2021/10/31 09:19:45;;;;;;;13.90;11.30;;;13.20;99.90;;;;;;5090101;28;20408;-75
2021/10/31 09:22:10;;;;;;;16.33;11.67;;;13.60;99.90;;;;;;5090635;28;20414;-76
2021/10/31 09:24:36;;;;;;;16.50;11.13;;;13.70;99.90;;;;;;5068211;28;20417;-75
2021/10/31 09:27:03;;;;;;;12.57;10.43;;;13.80;99.90;;;;;;5069347;28;20402;-75
2021/10/31 09:29:30;;;;;;;15.63;10.88;;;13.90;99.90;;;;;;5086001;28;20426;-75
2021/10/31 09:31:57;;;;;;;14.57;9.85;;;13.90;99.90;;;;;;5088123;28;20940;-76
2021/10/31 09:34:24;;;;;;;13.43;9.68;;;13.50;99.90;;;;;;5089278;28;20190;-76
2021/10/31 09:36:50;;;;;;;15.18;9.35;;;13.20;99.90;;;;;;5102117;28;20189;-75
2021/10/31 09:39:16;;;;;;;11.80;9.65;;;12.90;99.90;;;;;;5069655;28;20188;-77
2021/10/31 09:41:41;;;;;;;15.25;9.65;;;12.80;99.90;;;;;;5087315;28;20642;-75
2021/10/31 09:44:15;;;;;;;15.05;11.00;;;12.70;99.90;;;;;;5086748;28;20422;-74
2021/10/31 09:46:42;;;;;;;15.87;10.43;;;13.10;99.90;;;;;;5070633;28;20417;-76
2021/10/31 09:49:10;;;;;;;13.70;9.60;;;13.40;99.90;;;;;;5068721;28;20474;-76
2021/10/31 09:51:36;;;;;;;12.82;9.18;;;13.50;99.90;;;;;;5067562;28;20412;-76
2021/10/31 09:54:02;;;;;;;13.18;9.20;;;13.60;99.90;;;;;;5087510;28;20413;-74
2021/10/31 09:56:28;;;;;;;12.45;8.90;;;13.60;99.90;;;;;;5091614;28;20520;-76
2021/10/31 09:58:58;;;;;;;11.38;9.10;;;13.60;99.90;;;;;;5068880;28;20458;-76
2021/10/31 10:04:28;;;;;;;11.45;8.90;;;13.70;99.90;;;;;;5094044;28;20415;-75
2021/10/31 10:06:55;;;;;;;11.65;8.85;;;13.70;99.90;;;;;;5068115;28;21004;-76
2021/10/31 10:09:21;;;;;;;13.00;8.82;;;13.70;99.90;;;;;;5069305;28;20433;-76
2021/10/31 10:11:50;;;;;;;12.20;8.60;;;13.70;99.90;;;;;;5083974;28;20900;-76
2021/10/31 10:14:24;;;;;;;12.73;8.68;;;13.70;99.90;;;;;;5069838;28;20807;-76
2021/10/31 10:17:01;;;;;;;11.15;8.93;;;13.70;99.90;;;;;;5073269;28;20437;-76
2021/10/31 10:19:36;;;;;;;11.50;8.27;;;13.80;99.90;;;;;;5067543;28;20397;-76
2021/10/31 10:22:08;;;;;;;12.68;8.52;;;13.80;99.90;;;;;;5084889;28;20489;-77
2021/10/31 10:24:51;;;;;;;10.15;8.18;;;13.80;99.90;;;;;;5085471;28;20417;-76
2021/10/31 10:27:18;;;;;;;11.77;7.82;;;13.80;99.90;;;;;;5085038;28;20407;-76
2021/10/31 10:29:45;;;;;;;10.65;8.10;;;13.90;99.90;;;;;;5091085;28;20415;-77
2021/10/31 10:32:17;;;;;;;11.93;7.72;;;13.90;99.90;;;;;;5087231;28;20435;-77
2021/10/31 10:34:50;;;;;;;12.07;8.18;;;14.00;99.90;;;;;;5066164;28;22403;-76
2021/10/31 10:37:25;;;;;;;10.90;8.02;;;14.00;99.90;;;;;;5086898;28;20463;-76
2021/10/31 10:39:58;;;;;;;10.37;7.97;;;14.10;99.90;;;;;;5084820;28;20929;-77
2021/10/31 10:42:34;;;;;;;10.45;8.05;;;14.10;99.90;;;;;;5067600;28;20406;-77
2021/10/31 10:45:05;;;;;;;11.73;8.00;;;14.20;99.90;;;;;;5085651;28;20406;-78
2021/10/31 10:47:32;;;;;;;10.80;8.30;;;14.20;99.90;;;;;;5067974;28;20417;-76
2021/10/31 10:49:59;;;;;;;10.10;7.85;;;14.30;99.90;;;;;;5067989;28;20405;-73
2021/10/31 10:52:42;;;;;;;10.65;8.05;;;14.30;99.90;;;;;;5080413;28;20469;-75
2021/10/31 10:55:20;;;;;;;10.35;7.93;;;14.30;99.90;;;;;;5095491;28;20416;-76
2021/10/31 10:57:53;;;;;;;10.60;7.37;;;14.40;99.90;;;;;;5083693;28;20413;-75
2021/10/31 11:00:27;;;;;;;9.93;7.43;;;14.40;99.90;;;;;;5075389;28;20466;-76
2021/10/31 11:03:03;;;;;;;11.18;7.80;;;14.40;99.90;;;;;;5085504;28;20413;-76
2021/10/31 11:05:34;;;;;;;9.35;7.63;;;14.40;99.90;;;;;;5051423;28;20449;-76
2021/10/31 11:08:00;;;;;;;9.32;7.05;;;14.40;99.90;;;;;;5065921;28;20403;-74
2021/10/31 11:10:29;;;;;;;10.73;7.10;;;14.30;99.90;;;;;;5080132;28;20412;-74
2021/10/31 11:12:59;;;;;;;9.90;6.93;;;14.40;99.90;;;;;;5093444;28;20410;-76
2021/10/31 11:15:28;;;;;;;10.80;6.85;;;14.40;99.90;;;;;;5090393;28;20417;-75
2021/10/31 11:17:57;;;;;;;7.63;6.50;;;14.40;99.90;;;;;;5088220;28;20435;-75
2021/10/31 11:20:25;;;;;;;10.17;6.70;;;14.40;99.90;;;;;;5074929;28;20408;-76
2021/10/31 11:22:54;;;;;;;10.07;6.70;;;14.40;99.90;;;;;;5068171;28;20422;-78
2021/10/31 11:25:22;;;;;;;7.67;6.03;;;14.40;99.90;;;;;;5067938;28;20418;-76
2021/10/31 11:27:51;;;;;;;10.50;6.13;;;14.40;99.90;;;;;;5086533;28;20759;-77
2021/10/31 11:30:19;;;;;;;8.80;6.40;;;14.40;99.90;;;;;;5084562;28;20438;-76
2021/10/31 11:32:45;;;;;;;9.15;5.90;;;14.40;99.90;;;;;;5087918;28;20942;-78
2021/10/31 11:35:13;;;;;;;7.60;5.30;;;14.40;99.90;;;;;;5101881;27;20497;-77
2021/10/31 11:37:44;;;;;;;7.55;5.35;;;14.50;99.90;;;;;;5069366;28;21801;-75
2021/10/31 11:40:11;;;;;;;7.40;5.28;;;14.50;99.90;;;;;;5073366;28;20416;-79
2021/10/31 11:42:41;;;;;;;7.75;5.18;;;14.50;99.90;;;;;;5071293;28;20418;-75
2021/10/31 11:45:12;;;;;;;7.47;4.70;;;14.50;99.90;;;;;;5096462;28;20413;-76
2021/10/31 11:47:40;;;;;;;8.07;5.25;;;14.50;99.90;;;;;;5073503;28;20607;-76
2021/10/31 11:50:14;;;;;;;6.68;5.05;;;14.50;99.90;;;;;;5087648;28;20421;-75
2021/10/31 11:52:50;;;;;;;8.10;5.20;;;14.50;99.90;;;;;;5087298;28;20743;-75
2021/10/31 11:55:25;;;;;;;6.85;5.18;;;14.40;99.90;;;;;;5086487;28;20831;-76
2021/10/31 11:58:24;;;;;;;8.00;5.28;;;14.30;99.90;;;;;;5071689;28;20828;-74
2021/10/31 12:00:52;;;;;;;8.10;5.07;;;14.30;99.90;;;;;;5087199;28;20414;-74
2021/10/31 12:03:32;;;;;;;9.30;4.82;;;14.30;99.90;;;;;;5089932;28;20414;-74
2021/10/31 12:06:16;;;;;;;9.38;5.28;;;14.30;99.90;;;;;;5101998;28;20542;-74
2021/10/31 12:08:57;;;;;;;7.78;5.50;;;14.20;99.90;;;;;;5073849;28;20473;-75
2021/10/31 12:11:29;;;;;;;8.13;4.80;;;14.20;99.90;;;;;;5092687;28;20400;-74
2021/10/31 12:13:56;;;;;;;13.02;5.50;;;14.10;99.90;;;;;;5077635;28;20546;-75
2021/10/31 12:16:22;;;;;;;11.25;5.65;;;14.10;99.90;;;;;;5070520;28;20836;-74
2021/10/31 12:18:54;;;;;;;9.65;4.97;;;14.00;99.90;;;;;;5077565;28;20525;-74
2021/10/31 12:21:32;;;;;;;7.57;5.13;;;14.00;99.90;;;;;;5088953;28;20398;-72
2021/10/31 12:24:17;;;;;;;7.03;5.30;;;13.90;99.90;;;;;;5091624;28;20442;-73
2021/10/31 12:26:52;;;;;;;8.73;5.22;;;13.80;99.90;;;;;;5090783;28;20902;-73
2021/10/31 12:29:26;;;;;;;8.05;5.07;;;13.80;99.90;;;;;;5071502;28;20487;-74
2021/10/31 12:32:07;;;;;;;8.48;5.28;;;13.80;99.90;;;;;;5069275;28;20413;-74
2021/10/31 12:34:39;;;;;;;9.13;5.10;;;13.70;99.90;;;;;;5092900;28;20403;-74
2021/10/31 12:37:23;;;;;;;6.63;4.70;;;13.70;99.90;;;;;;5070708;28;20409;-74
2021/10/31 12:39:57;;;;;;;8.07;4.72;;;13.70;99.90;;;;;;5098083;28;20467;-74
2021/10/31 12:42:35;;;;;;;7.40;4.60;;;13.70;99.90;;;;;;5088910;28;20413;-74